createdAt,value
2023-05-05T00:00:15.902Z,23.00
2023-05-05T00:02:45.514Z,22.90
2023-05-05T00:05:13.261Z,23.10
2023-05-05T00:07:40.412Z,22.90
2023-05-05T00:10:08.613Z,22.90
2023-05-05T00:12:36.625Z,22.90
2023-05-05T00:15:04.602Z,22.80
2023-05-05T00:17:31.679Z,22.70
2023-05-05T00:20:00.274Z,22.50
2023-05-05T00:22:28.756Z,22.80
2023-05-05T00:24:56.506Z,23.10
2023-05-05T00:27:23.337Z,23.20
2023-05-05T00:29:52.563Z,23.30
2023-05-05T00:32:23.247Z,23.40
2023-05-05T00:34:50.347Z,23.40
2023-05-05T00:37:17.809Z,23.70
2023-05-05T00:39:45.398Z,23.70
2023-05-05T00:42:12.617Z,23.80
2023-05-05T00:44:42.639Z,23.70
2023-05-05T00:47:11.827Z,23.70
2023-05-05T00:49:40.009Z,24.10
2023-05-05T00:52:11.370Z,24.00
2023-05-05T00:54:38.528Z,24.10
2023-05-05T00:57:05.613Z,24.30
2023-05-05T00:59:35.251Z,24.40
2023-05-05T01:02:02.878Z,24.70
2023-05-05T01:04:30.497Z,25.10
2023-05-05T01:07:22.763Z,25.20
2023-05-05T01:10:23.744Z,25.10
2023-05-05T01:13:13.318Z,25.30
2023-05-05T01:16:06.785Z,25.80
2023-05-05T01:18:50.519Z,26.20
2023-05-05T01:21:33.627Z,26.50
2023-05-05T01:24:38.383Z,26.70
2023-05-05T01:27:31.977Z,27.20
2023-05-05T01:30:39.318Z,27.40
2023-05-05T01:33:12.133Z,28.10
2023-05-05T01:35:46.914Z,28.50
2023-05-05T01:38:23.514Z,28.90
2023-05-05T01:41:02.346Z,29.10
2023-05-05T01:43:33.773Z,29.70
2023-05-05T01:46:02.562Z,30.50
2023-05-05T01:48:34.007Z,30.20
2023-05-05T01:51:05.078Z,30.30
2023-05-05T01:53:34.588Z,31.30
2023-05-05T01:56:03.587Z,31.60
2023-05-05T01:58:33.206Z,31.40
2023-05-05T02:01:01.390Z,31.90
2023-05-05T02:03:30.767Z,32.90
2023-05-05T02:06:03.600Z,33.00
2023-05-05T02:08:32.108Z,33.40
2023-05-05T02:11:01.021Z,33.80
2023-05-05T02:13:31.358Z,35.60
2023-05-05T02:15:59.531Z,35.40
2023-05-05T02:18:28.565Z,35.10
2023-05-05T02:20:56.069Z,35.50
2023-05-05T02:23:24.429Z,35.70
2023-05-05T02:25:55.939Z,35.70
2023-05-05T02:28:35.184Z,36.10
2023-05-05T02:31:06.101Z,36.50
2023-05-05T02:33:35.466Z,36.90
2023-05-05T02:36:19.253Z,37.30
2023-05-05T02:38:47.674Z,38.00
2023-05-05T02:41:20.219Z,38.80
2023-05-05T02:43:50.150Z,40.20
2023-05-05T02:46:18.116Z,41.30
2023-05-05T02:48:46.392Z,42.90
2023-05-05T02:51:13.671Z,44.20
2023-05-05T02:53:41.400Z,45.90
2023-05-05T02:56:27.861Z,48.60
2023-05-05T02:59:00.114Z,53.20
2023-05-05T03:01:38.565Z,56.20
2023-05-05T03:04:32.180Z,58.80
2023-05-05T03:07:04.464Z,63.60
2023-05-05T03:09:51.726Z,66.40
2023-05-05T03:12:22.391Z,68.60
2023-05-05T03:14:56.902Z,71.30
2023-05-05T03:17:25.319Z,73.90
2023-05-05T03:19:53.034Z,76.70
2023-05-05T03:22:20.810Z,77.40
2023-05-05T03:24:51.857Z,78.20
2023-05-05T03:27:20.801Z,79.90
2023-05-05T03:29:48.321Z,82.70
2023-05-05T03:32:18.474Z,85.50
2023-05-05T03:34:46.380Z,82.80
2023-05-05T03:37:14.104Z,87.20
2023-05-05T03:39:42.043Z,87.20
2023-05-05T03:42:09.921Z,90.20
2023-05-05T03:44:37.076Z,90.00
2023-05-05T03:47:08.008Z,90.20
2023-05-05T03:49:35.204Z,90.80
2023-05-05T03:52:03.039Z,92.00
2023-05-05T03:54:29.878Z,92.50
2023-05-05T03:56:57.183Z,93.80
2023-05-05T03:59:24.251Z,94.60
2023-05-05T04:01:51.644Z,93.90
2023-05-05T04:04:19.333Z,93.60
2023-05-05T04:06:46.784Z,95.70
2023-05-05T04:09:15.012Z,96.40
2023-05-05T04:11:42.471Z,95.80
2023-05-05T04:14:10.392Z,96.80
2023-05-05T04:16:37.624Z,95.90
2023-05-05T04:19:05.294Z,96.70
2023-05-05T04:21:32.735Z,97.10
2023-05-05T04:24:00.208Z,96.80
2023-05-05T04:26:28.081Z,97.80
2023-05-05T04:28:56.108Z,98.00
2023-05-05T04:31:23.925Z,97.80
2023-05-05T04:33:51.468Z,98.40
2023-05-05T04:36:19.657Z,99.10
2023-05-05T04:38:47.433Z,98.80
2023-05-05T04:41:15.142Z,99.70
2023-05-05T04:43:42.875Z,99.00
2023-05-05T04:46:10.943Z,99.90
2023-05-05T04:48:38.485Z,99.40
2023-05-05T04:51:07.362Z,99.00
2023-05-05T04:53:35.085Z,98.40
2023-05-05T04:56:05.386Z,99.00
2023-05-05T04:58:32.997Z,99.40
2023-05-05T05:01:00.688Z,99.30
2023-05-05T05:03:27.579Z,98.90
2023-05-05T05:05:55.189Z,99.90
2023-05-05T05:08:22.942Z,99.90
2023-05-05T05:10:50.534Z,99.90
2023-05-05T05:13:17.728Z,99.90
2023-05-05T05:15:46.064Z,99.90
2023-05-05T05:18:13.630Z,99.90
2023-05-05T05:20:40.971Z,99.90
2023-05-05T05:23:07.887Z,99.90
2023-05-05T05:25:35.269Z,99.90
2023-05-05T05:28:10.114Z,99.90
2023-05-05T05:30:38.120Z,99.90
2023-05-05T05:33:05.769Z,99.90
2023-05-05T05:35:33.669Z,99.90
2023-05-05T05:38:01.603Z,99.90
2023-05-05T05:40:31.349Z,99.90
2023-05-05T05:42:58.969Z,99.90
2023-05-05T05:45:26.265Z,99.90
2023-05-05T05:47:53.083Z,99.90
2023-05-05T05:50:21.492Z,99.90
2023-05-05T05:52:48.915Z,99.90
2023-05-05T05:55:16.391Z,99.90
2023-05-05T05:57:46.836Z,99.90
2023-05-05T06:00:16.221Z,99.90
2023-05-05T06:02:43.096Z,99.90
2023-05-05T06:05:11.152Z,99.90
2023-05-05T06:07:38.926Z,99.90
2023-05-05T06:10:22.555Z,99.90
2023-05-05T06:12:53.976Z,99.90
2023-05-05T06:15:20.998Z,99.90
2023-05-05T06:17:48.911Z,99.90
2023-05-05T06:20:16.434Z,99.90
2023-05-05T06:22:44.163Z,99.90
2023-05-05T06:25:11.600Z,99.90
2023-05-05T06:27:38.786Z,99.90
2023-05-05T06:30:08.261Z,99.90
2023-05-05T06:32:36.112Z,99.90
2023-05-05T06:35:03.973Z,99.90
2023-05-05T06:37:31.897Z,99.90
2023-05-05T06:40:01.853Z,99.90
2023-05-05T06:42:31.292Z,99.90
2023-05-05T06:44:58.203Z,99.90
2023-05-05T06:47:26.478Z,99.90
2023-05-05T06:49:53.890Z,99.90
2023-05-05T06:52:22.552Z,99.90
2023-05-05T06:54:49.769Z,99.90
2023-05-05T06:57:17.156Z,99.90
2023-05-05T06:59:44.341Z,99.90
2023-05-05T07:02:11.872Z,99.90
2023-05-05T07:04:42.151Z,99.90
2023-05-05T07:07:09.799Z,99.90
2023-05-05T07:09:41.647Z,99.90
2023-05-05T07:12:09.769Z,99.90
2023-05-05T07:14:36.770Z,99.90
2023-05-05T07:17:04.770Z,99.90
2023-05-05T07:19:31.524Z,99.90
2023-05-05T07:21:58.226Z,99.90
2023-05-05T07:24:24.994Z,99.90
2023-05-05T07:26:51.813Z,99.30
2023-05-05T07:29:18.520Z,99.10
2023-05-05T07:31:45.917Z,98.20
2023-05-05T07:34:12.889Z,97.60
2023-05-05T07:36:40.038Z,95.10
2023-05-05T07:39:07.527Z,94.80
2023-05-05T07:41:34.302Z,93.90
2023-05-05T07:44:01.422Z,93.80
2023-05-05T07:46:28.287Z,93.40
2023-05-05T07:48:55.057Z,93.00
2023-05-05T07:51:22.017Z,92.90
2023-05-05T07:53:48.906Z,90.80
2023-05-05T07:56:15.691Z,90.40
2023-05-05T07:58:42.580Z,89.20
2023-05-05T08:01:11.227Z,87.90
2023-05-05T08:03:38.295Z,83.80
2023-05-05T08:06:12.058Z,82.00
2023-05-05T08:08:38.741Z,76.10
2023-05-05T08:11:06.681Z,74.90
2023-05-05T08:13:34.175Z,78.10
2023-05-05T08:16:00.958Z,78.80
2023-05-05T08:18:27.754Z,80.20
2023-05-05T08:20:54.714Z,76.10
2023-05-05T08:23:21.804Z,70.90
2023-05-05T08:25:48.553Z,70.90
2023-05-05T08:28:15.593Z,70.20
2023-05-05T08:30:42.871Z,68.40
2023-05-05T08:33:11.090Z,64.60
2023-05-05T08:35:37.996Z,62.80
2023-05-05T08:38:04.757Z,58.40
2023-05-05T08:40:36.972Z,58.80
2023-05-05T08:43:04.578Z,57.80
2023-05-05T08:45:31.724Z,56.70
2023-05-05T08:48:05.497Z,55.80
2023-05-05T08:50:32.826Z,53.90
2023-05-05T08:53:15.762Z,53.40
2023-05-05T08:55:51.274Z,53.00
2023-05-05T08:58:19.562Z,52.20
2023-05-05T09:00:46.674Z,53.00
2023-05-05T09:03:14.552Z,51.30
2023-05-05T09:05:43.315Z,51.60
2023-05-05T09:08:13.841Z,51.50
2023-05-05T09:10:41.888Z,50.50
2023-05-05T09:13:08.991Z,48.60
2023-05-05T09:15:35.959Z,46.90
2023-05-05T09:18:05.250Z,46.20
2023-05-05T09:20:36.171Z,45.50
2023-05-05T09:23:14.966Z,46.00
2023-05-05T09:25:47.051Z,45.70
2023-05-05T09:28:18.017Z,47.20
2023-05-05T09:30:46.916Z,49.20
2023-05-05T09:33:14.092Z,50.80
2023-05-05T09:36:11.597Z,52.60
2023-05-05T09:38:38.412Z,52.30
2023-05-05T09:41:06.381Z,52.60
2023-05-05T09:43:52.623Z,52.30
2023-05-05T09:46:19.599Z,52.90
2023-05-05T09:48:46.498Z,54.20
2023-05-05T09:51:13.318Z,55.80
2023-05-05T09:53:41.824Z,56.70
2023-05-05T09:56:08.747Z,57.00
2023-05-05T09:58:35.698Z,55.10
2023-05-05T10:01:02.432Z,53.80
2023-05-05T10:03:29.144Z,52.60
2023-05-05T10:06:01.057Z,50.60
2023-05-05T10:08:30.415Z,49.00
2023-05-05T10:11:06.387Z,46.40
2023-05-05T10:13:43.107Z,44.40
2023-05-05T10:16:12.143Z,42.90
2023-05-05T10:18:43.483Z,42.50
2023-05-05T10:21:12.443Z,42.90
2023-05-05T10:23:49.547Z,41.60
2023-05-05T10:26:19.894Z,40.70
2023-05-05T10:28:56.436Z,40.10
2023-05-05T10:31:56.058Z,38.60
2023-05-05T10:34:52.233Z,37.50
2023-05-05T10:37:21.821Z,35.50
2023-05-05T10:39:50.580Z,35.90
2023-05-05T10:42:19.481Z,35.10
2023-05-05T10:44:48.443Z,34.40
2023-05-05T10:47:17.100Z,33.80
2023-05-05T10:49:59.875Z,37.90
2023-05-05T10:52:54.640Z,39.20
2023-05-05T10:55:58.687Z,39.30
2023-05-05T10:58:44.097Z,40.70
2023-05-05T11:01:35.200Z,38.50
2023-05-05T11:04:21.854Z,36.00
2023-05-05T11:07:14.359Z,36.20
2023-05-05T11:09:58.789Z,36.70
2023-05-05T11:12:25.807Z,35.30
2023-05-05T11:15:34.423Z,38.90
2023-05-05T11:18:05.862Z,43.50
2023-05-05T11:20:37.102Z,48.60
2023-05-05T11:23:03.883Z,53.40
2023-05-05T11:25:37.515Z,56.30
2023-05-05T11:28:16.418Z,57.50
2023-05-05T11:31:03.451Z,74.20
2023-05-05T11:33:32.081Z,85.90
2023-05-05T11:36:06.092Z,85.30
2023-05-05T11:38:36.375Z,99.90
2023-05-05T11:41:14.347Z,99.90
2023-05-05T11:43:44.069Z,99.90
2023-05-05T11:46:14.793Z,99.90
2023-05-05T11:48:48.856Z,99.90
2023-05-05T11:51:17.122Z,99.90
2023-05-05T11:53:44.799Z,99.90
2023-05-05T11:56:12.682Z,99.90
2023-05-05T11:58:39.484Z,99.90
2023-05-05T12:01:09.187Z,99.90
2023-05-05T12:03:37.799Z,99.90
2023-05-05T12:06:05.829Z,99.90
2023-05-05T12:08:36.721Z,99.90
2023-05-05T12:11:10.776Z,99.90
2023-05-05T12:13:37.580Z,99.90
2023-05-05T12:16:15.191Z,99.90
2023-05-05T12:18:42.679Z,99.90
2023-05-05T12:21:19.805Z,99.90
2023-05-05T12:23:47.121Z,99.90
2023-05-05T12:26:27.946Z,99.90
2023-05-05T12:29:00.992Z,99.90
2023-05-05T12:31:43.029Z,99.90
2023-05-05T12:34:11.179Z,99.90
2023-05-05T12:36:38.840Z,99.90
2023-05-05T12:39:08.304Z,99.90
2023-05-05T12:41:35.834Z,99.90
2023-05-05T12:44:05.538Z,99.90
2023-05-05T12:46:45.306Z,99.90
2023-05-05T12:49:12.141Z,99.90
2023-05-05T12:51:39.283Z,99.90
2023-05-05T12:54:12.698Z,99.90
2023-05-05T12:56:47.185Z,99.90
2023-05-05T12:59:23.074Z,99.90
2023-05-05T13:01:54.301Z,99.90
2023-05-05T13:04:23.191Z,99.90
2023-05-05T13:07:07.390Z,99.90
2023-05-05T13:09:34.738Z,99.90
2023-05-05T13:12:04.600Z,99.90
2023-05-05T13:14:37.952Z,99.90
2023-05-05T13:17:04.736Z,99.90
2023-05-05T13:19:31.975Z,99.90
2023-05-05T13:21:59.083Z,99.90
2023-05-05T13:24:42.170Z,99.90
2023-05-05T13:27:13.072Z,99.90
2023-05-05T13:29:41.740Z,99.90
2023-05-05T13:32:08.548Z,99.90
2023-05-05T13:34:35.394Z,99.90
2023-05-05T13:37:02.063Z,99.30
2023-05-05T13:39:28.852Z,98.00
2023-05-05T13:41:55.711Z,96.20
2023-05-05T13:44:22.491Z,97.80
2023-05-05T13:46:49.298Z,99.10
2023-05-05T13:49:16.383Z,97.40
2023-05-05T13:51:43.972Z,99.30
2023-05-05T13:54:11.428Z,98.30
2023-05-05T13:56:38.195Z,99.90
2023-05-05T13:59:04.980Z,99.90
2023-05-05T14:01:31.846Z,99.90
2023-05-05T14:03:58.836Z,99.90
2023-05-05T14:06:26.388Z,99.90
2023-05-05T14:08:53.383Z,99.90
2023-05-05T14:11:20.791Z,99.90
2023-05-05T14:13:48.184Z,99.90
2023-05-05T14:16:15.431Z,99.90
2023-05-05T14:18:42.515Z,99.90
2023-05-05T14:21:09.346Z,99.90
2023-05-05T14:23:36.144Z,99.90
2023-05-05T14:26:02.883Z,99.90
2023-05-05T14:28:29.611Z,99.90
2023-05-05T14:30:56.464Z,99.90
2023-05-05T14:33:23.295Z,99.90
2023-05-05T14:35:50.087Z,99.90
2023-05-05T14:38:16.914Z,99.90
2023-05-05T14:40:43.720Z,99.90
2023-05-05T14:43:10.491Z,99.90
2023-05-05T14:45:37.439Z,99.90
2023-05-05T14:48:04.354Z,99.90
2023-05-05T14:50:31.248Z,99.90
2023-05-05T14:52:57.981Z,99.90
2023-05-05T14:55:25.149Z,99.90
2023-05-05T14:57:52.054Z,99.90
2023-05-05T15:00:19.022Z,99.90
2023-05-05T15:02:48.324Z,99.90
2023-05-05T15:05:15.372Z,99.90
2023-05-05T15:07:42.241Z,99.90
2023-05-05T15:10:09.342Z,99.90
2023-05-05T15:12:36.275Z,99.90
2023-05-05T15:15:03.148Z,99.90
2023-05-05T15:17:30.847Z,99.90
2023-05-05T15:19:57.779Z,99.90
2023-05-05T15:22:24.673Z,99.90
2023-05-05T15:24:51.326Z,99.90
2023-05-05T15:27:18.535Z,99.90
2023-05-05T15:29:45.395Z,99.90
2023-05-05T15:32:12.341Z,99.90
2023-05-05T15:34:39.206Z,99.90
2023-05-05T15:37:06.093Z,99.90
2023-05-05T15:39:32.807Z,99.90
2023-05-05T15:42:02.699Z,99.90
2023-05-05T15:44:29.919Z,99.90
2023-05-05T15:46:56.886Z,99.90
2023-05-05T15:49:23.630Z,99.90
2023-05-05T15:51:50.300Z,99.90
2023-05-05T15:54:17.003Z,99.90
2023-05-05T15:56:43.810Z,99.90
2023-05-05T15:59:11.904Z,99.90
2023-05-05T16:01:40.679Z,99.90
2023-05-05T16:04:08.339Z,99.90
2023-05-05T16:06:39.007Z,99.90
2023-05-05T16:09:05.721Z,99.90
2023-05-05T16:11:32.520Z,99.90
2023-05-05T16:13:59.308Z,99.90
2023-05-05T16:16:26.255Z,99.90
2023-05-05T16:18:53.153Z,99.90
2023-05-05T16:21:19.895Z,99.90
2023-05-05T16:23:46.666Z,99.90
2023-05-05T16:26:13.437Z,99.90
2023-05-05T16:28:40.201Z,99.90
2023-05-05T16:31:07.105Z,99.90
2023-05-05T16:33:36.123Z,99.90
2023-05-05T16:36:02.914Z,99.90
2023-05-05T16:38:29.608Z,99.90
2023-05-05T16:40:56.398Z,99.90
2023-05-05T16:43:23.134Z,99.90
2023-05-05T16:45:49.882Z,99.90
2023-05-05T16:48:18.375Z,99.90
2023-05-05T16:50:45.631Z,99.90
2023-05-05T16:53:12.466Z,99.90
2023-05-05T16:55:39.277Z,99.90
2023-05-05T16:58:05.978Z,99.90
2023-05-05T17:00:32.667Z,99.90
2023-05-05T17:02:59.441Z,99.90
2023-05-05T17:05:26.914Z,99.90
2023-05-05T17:07:53.896Z,99.90
2023-05-05T17:10:20.808Z,99.90
2023-05-05T17:12:47.524Z,99.90
2023-05-05T17:15:14.229Z,99.90
2023-05-05T17:17:42.889Z,99.90
2023-05-05T17:20:10.751Z,99.90
2023-05-05T17:22:38.117Z,99.90
2023-05-05T17:25:05.820Z,99.90
2023-05-05T17:27:32.575Z,99.90
2023-05-05T17:29:59.493Z,99.90
2023-05-05T17:32:26.567Z,99.90
2023-05-05T17:34:53.283Z,99.90
2023-05-05T17:37:19.960Z,99.90
2023-05-05T17:39:46.612Z,99.90
2023-05-05T17:42:13.330Z,99.90
2023-05-05T17:44:40.146Z,99.90
2023-05-05T17:47:07.752Z,99.90
2023-05-05T17:49:34.797Z,99.90
2023-05-05T17:52:01.656Z,99.90
2023-05-05T17:54:28.438Z,99.90
2023-05-05T17:56:55.351Z,99.90
2023-05-05T17:59:22.199Z,99.90
2023-05-05T18:01:49.026Z,99.90
2023-05-05T18:04:15.931Z,99.90
2023-05-05T18:06:42.744Z,99.90
2023-05-05T18:09:11.149Z,99.90
2023-05-05T18:11:38.165Z,99.90
2023-05-05T18:14:05.126Z,99.90
2023-05-05T18:16:31.947Z,99.90
2023-05-05T18:18:58.964Z,99.90
2023-05-05T18:21:25.889Z,99.90
2023-05-05T18:23:57.321Z,99.90
2023-05-05T18:26:28.640Z,99.90
2023-05-05T18:28:55.332Z,99.90
2023-05-05T18:31:22.322Z,99.90
2023-05-05T18:33:49.080Z,99.90
2023-05-05T18:36:16.072Z,99.90
2023-05-05T18:38:42.779Z,99.90
2023-05-05T18:41:09.515Z,99.90
2023-05-05T18:43:36.266Z,99.90
2023-05-05T18:46:03.235Z,99.90
2023-05-05T18:48:30.629Z,99.90
2023-05-05T18:51:04.511Z,99.90
2023-05-05T18:53:32.198Z,99.90
2023-05-05T18:55:59.656Z,99.90
2023-05-05T18:58:27.355Z,99.90
2023-05-05T19:00:54.555Z,99.90
2023-05-05T19:03:22.085Z,99.90
2023-05-05T19:05:48.856Z,99.90
2023-05-05T19:08:15.698Z,99.90
2023-05-05T19:10:42.497Z,99.90
2023-05-05T19:13:09.969Z,99.90
2023-05-05T19:15:36.794Z,99.90
2023-05-05T19:18:05.631Z,99.90
2023-05-05T19:20:32.605Z,99.90
2023-05-05T19:23:03.643Z,99.90
2023-05-05T19:25:31.457Z,99.90
2023-05-05T19:27:58.294Z,99.90
2023-05-05T19:30:24.995Z,99.90
2023-05-05T19:32:51.721Z,99.90
2023-05-05T19:35:18.442Z,99.90
2023-05-05T19:37:45.217Z,99.90
2023-05-05T19:40:12.969Z,99.90
2023-05-05T19:42:40.019Z,99.90
2023-05-05T19:45:07.470Z,99.90
2023-05-05T19:47:34.408Z,99.90
2023-05-05T19:50:01.126Z,99.90
2023-05-05T19:52:27.784Z,99.90
2023-05-05T19:54:54.530Z,99.90
2023-05-05T19:57:21.264Z,99.90
2023-05-05T19:59:49.619Z,99.90
2023-05-05T20:02:21.897Z,99.90
2023-05-05T20:04:49.556Z,99.90
2023-05-05T20:07:17.864Z,99.90
2023-05-05T20:09:45.097Z,99.90
2023-05-05T20:12:12.249Z,99.90
2023-05-05T20:14:39.017Z,99.90
2023-05-05T20:17:05.852Z,99.90
2023-05-05T20:19:32.645Z,99.90
2023-05-05T20:21:59.788Z,99.90
2023-05-05T20:24:28.543Z,99.90
2023-05-05T20:26:55.295Z,99.90
2023-05-05T20:29:22.547Z,99.90
2023-05-05T20:31:49.602Z,99.90
2023-05-05T20:34:16.502Z,99.90
2023-05-05T20:36:43.457Z,99.90
2023-05-05T20:39:15.607Z,99.90
2023-05-05T20:41:42.518Z,99.90
2023-05-05T20:44:10.217Z,99.90
2023-05-05T20:46:37.596Z,99.90
2023-05-05T20:49:04.416Z,99.90
2023-05-05T20:51:34.247Z,99.90
2023-05-05T20:54:02.155Z,99.90
2023-05-05T20:56:28.843Z,99.90
2023-05-05T20:58:56.762Z,99.90
2023-05-05T21:01:23.621Z,99.90
2023-05-05T21:03:50.480Z,99.90
2023-05-05T21:06:19.462Z,99.90
2023-05-05T21:08:47.119Z,99.90
2023-05-05T21:11:13.963Z,99.90
2023-05-05T21:13:40.699Z,99.90
2023-05-05T21:16:10.220Z,99.90
2023-05-05T21:18:36.910Z,99.90
2023-05-05T21:21:03.715Z,99.90
2023-05-05T21:23:31.031Z,99.90
2023-05-05T21:25:57.729Z,99.90
2023-05-05T21:28:24.452Z,99.90
2023-05-05T21:31:10.252Z,99.90
2023-05-05T21:33:38.137Z,99.90
2023-05-05T21:36:06.017Z,99.90
2023-05-05T21:38:32.742Z,99.90
2023-05-05T21:40:59.596Z,99.90
2023-05-05T21:43:28.694Z,99.90
2023-05-05T21:46:13.731Z,99.90
2023-05-05T21:48:41.366Z,99.90
2023-05-05T21:51:08.253Z,99.90
2023-05-05T21:53:35.071Z,99.90
2023-05-05T21:56:01.896Z,99.90
2023-05-05T21:58:29.144Z,99.90
2023-05-05T22:00:56.247Z,99.90
2023-05-05T22:03:23.551Z,99.90
2023-05-05T22:05:50.442Z,99.90
2023-05-05T22:08:17.854Z,99.90
2023-05-05T22:10:44.709Z,99.90
2023-05-05T22:13:11.813Z,99.90
2023-05-05T22:15:45.775Z,99.90
2023-05-05T22:18:13.896Z,99.90
2023-05-05T22:20:40.648Z,99.90
2023-05-05T22:23:07.649Z,99.90
2023-05-05T22:25:34.315Z,99.90
2023-05-05T22:28:01.051Z,99.90
2023-05-05T22:30:27.827Z,99.90
2023-05-05T22:32:55.204Z,99.90
2023-05-05T22:35:22.122Z,99.90
2023-05-05T22:37:48.937Z,99.90
2023-05-05T22:40:15.713Z,99.90
2023-05-05T22:42:42.478Z,99.90
2023-05-05T22:45:09.859Z,99.90
2023-05-05T22:47:37.085Z,99.90
2023-05-05T22:50:03.936Z,99.90
2023-05-05T22:52:30.619Z,99.90
2023-05-05T22:54:57.326Z,99.90
2023-05-05T22:57:24.649Z,99.90
2023-05-05T22:59:51.679Z,99.90
2023-05-05T23:02:18.376Z,99.90
2023-05-05T23:04:45.333Z,99.90
2023-05-05T23:07:13.047Z,99.90
2023-05-05T23:09:40.758Z,99.90
2023-05-05T23:12:07.588Z,99.90
2023-05-05T23:14:35.285Z,99.90
2023-05-05T23:17:02.165Z,99.90
2023-05-05T23:19:32.056Z,99.90
2023-05-05T23:22:00.246Z,99.90
2023-05-05T23:24:29.203Z,99.90
2023-05-05T23:27:00.105Z,99.90
2023-05-05T23:29:28.602Z,99.90
2023-05-05T23:31:55.727Z,99.90
2023-05-05T23:34:23.698Z,99.90
2023-05-05T23:36:51.622Z,99.90
2023-05-05T23:39:18.959Z,99.90
2023-05-05T23:41:46.650Z,99.90
2023-05-05T23:44:14.419Z,99.90
2023-05-05T23:46:41.781Z,99.90
2023-05-05T23:49:09.749Z,99.90
2023-05-05T23:51:37.299Z,99.90
2023-05-05T23:54:04.803Z,99.90
2023-05-05T23:56:32.351Z,99.90
2023-05-05T23:58:59.278Z,99.90
